createdAt,value
2023-01-27T00:01:09.486Z,21.37
2023-01-27T00:03:36.886Z,20.73
2023-01-27T00:06:05.679Z,21.77
2023-01-27T00:08:35.692Z,23.07
2023-01-27T00:11:23.406Z,22.57
2023-01-27T00:13:50.912Z,22.17
2023-01-27T00:16:18.671Z,22.43
2023-01-27T00:18:46.099Z,22.27
2023-01-27T00:21:37.221Z,21.87
2023-01-27T00:24:41.974Z,22.13
2023-01-27T00:27:10.887Z,21.10
2023-01-27T00:29:41.374Z,20.27
2023-01-27T00:32:32.568Z,21.73
2023-01-27T00:35:00.640Z,21.73
2023-01-27T00:37:28.003Z,22.30
2023-01-27T00:39:58.364Z,22.77
2023-01-27T00:42:26.843Z,22.50
2023-01-27T00:45:13.496Z,22.70
2023-01-27T00:47:43.114Z,22.67
2023-01-27T00:50:10.997Z,23.13
2023-01-27T00:52:45.594Z,21.33
2023-01-27T00:55:20.739Z,22.03
2023-01-27T00:57:56.801Z,21.87
2023-01-27T01:00:24.156Z,21.30
2023-01-27T01:02:55.608Z,21.83
2023-01-27T01:05:32.644Z,21.33
2023-01-27T01:08:00.717Z,21.33
2023-01-27T01:10:30.585Z,21.13
2023-01-27T01:13:02.238Z,20.87
2023-01-27T01:15:30.563Z,21.83
2023-01-27T01:17:58.631Z,20.90
2023-01-27T01:20:26.190Z,21.70
2023-01-27T01:22:53.492Z,21.53
2023-01-27T01:25:22.060Z,22.03
2023-01-27T01:27:52.894Z,21.40
2023-01-27T01:30:23.355Z,21.67
2023-01-27T01:32:50.960Z,21.90
2023-01-27T01:35:18.729Z,22.33
2023-01-27T01:37:46.109Z,22.03
2023-01-27T01:40:14.377Z,21.37
2023-01-27T01:43:11.509Z,22.77
2023-01-27T01:45:54.113Z,21.90
2023-01-27T01:48:31.724Z,21.00
2023-01-27T01:51:08.350Z,21.90
2023-01-27T01:53:39.326Z,21.53
2023-01-27T01:56:20.472Z,21.23
2023-01-27T01:58:48.907Z,21.83
2023-01-27T02:01:19.415Z,21.83
2023-01-27T02:03:52.642Z,22.03
2023-01-27T02:06:20.377Z,21.80
2023-01-27T02:08:49.511Z,22.47
2023-01-27T02:11:24.335Z,22.80
2023-01-27T02:13:52.689Z,23.63
2023-01-27T02:16:20.762Z,22.77
2023-01-27T02:18:48.093Z,23.47
2023-01-27T02:21:15.495Z,24.40
2023-01-27T02:23:53.504Z,23.13
2023-01-27T02:26:31.200Z,23.30
2023-01-27T02:29:00.060Z,24.10
2023-01-27T02:31:27.872Z,22.40
2023-01-27T02:33:58.857Z,22.33
2023-01-27T02:36:28.344Z,22.20
2023-01-27T02:38:56.968Z,21.93
2023-01-27T02:41:33.693Z,21.83
2023-01-27T02:44:01.249Z,21.80
2023-01-27T02:46:30.503Z,22.57
2023-01-27T02:48:57.966Z,21.97
2023-01-27T02:51:25.537Z,21.63
2023-01-27T02:53:52.946Z,21.97
2023-01-27T02:56:21.461Z,22.63
2023-01-27T02:58:48.909Z,23.13
2023-01-27T03:01:25.290Z,23.60
2023-01-27T03:03:52.835Z,23.97
2023-01-27T03:06:20.834Z,23.83
2023-01-27T03:08:48.594Z,24.60
2023-01-27T03:11:36.767Z,24.53
2023-01-27T03:14:04.884Z,25.17
2023-01-27T03:16:50.791Z,27.50
2023-01-27T03:19:18.235Z,27.30
2023-01-27T03:21:46.565Z,28.60
2023-01-27T03:24:13.984Z,29.03
2023-01-27T03:26:42.619Z,30.07
2023-01-27T03:29:31.472Z,29.63
2023-01-27T03:31:59.230Z,28.87
2023-01-27T03:34:32.591Z,29.57
2023-01-27T03:37:34.115Z,30.63
2023-01-27T03:40:20.360Z,29.30
2023-01-27T03:43:06.885Z,31.40
2023-01-27T03:45:53.380Z,31.40
2023-01-27T03:48:21.259Z,30.37
2023-01-27T03:50:53.827Z,30.93
2023-01-27T03:53:21.403Z,30.00
2023-01-27T03:55:48.814Z,29.40
2023-01-27T03:58:20.679Z,29.17
2023-01-27T04:00:50.283Z,28.77
2023-01-27T04:03:36.437Z,30.40
2023-01-27T04:06:23.337Z,30.00
2023-01-27T04:08:51.721Z,30.93
2023-01-27T04:11:38.387Z,30.90
2023-01-27T04:14:10.040Z,30.40
2023-01-27T04:16:38.809Z,31.97
2023-01-27T04:19:10.166Z,32.73
2023-01-27T04:21:40.333Z,32.90
2023-01-27T04:24:17.690Z,32.57
2023-01-27T04:27:03.072Z,34.50
2023-01-27T04:29:32.394Z,33.00
2023-01-27T04:31:59.766Z,34.60
2023-01-27T04:34:27.839Z,32.73
2023-01-27T04:36:55.562Z,33.97
2023-01-27T04:39:23.338Z,34.67
2023-01-27T04:41:51.653Z,33.40
2023-01-27T04:44:22.134Z,34.37
2023-01-27T04:46:49.781Z,34.37
2023-01-27T04:49:17.330Z,34.33
2023-01-27T04:51:46.326Z,33.97
2023-01-27T04:54:15.675Z,34.00
2023-01-27T04:56:45.658Z,33.13
2023-01-27T04:59:17.237Z,34.77
2023-01-27T05:01:44.701Z,33.30
2023-01-27T05:04:12.082Z,33.33
2023-01-27T05:06:39.386Z,32.93
2023-01-27T05:09:06.711Z,30.07
2023-01-27T05:11:34.039Z,31.47
2023-01-27T05:14:01.376Z,32.47
2023-01-27T05:16:29.927Z,33.17
2023-01-27T05:18:57.514Z,37.60
2023-01-27T05:21:28.284Z,39.57
2023-01-27T05:23:55.775Z,39.57
2023-01-27T05:26:27.030Z,41.07
2023-01-27T05:28:55.451Z,40.63
2023-01-27T05:31:31.500Z,41.20
2023-01-27T05:34:00.403Z,38.87
2023-01-27T05:36:28.629Z,39.93
2023-01-27T05:38:56.413Z,40.80
2023-01-27T05:41:23.840Z,39.87
2023-01-27T05:43:56.044Z,39.97
2023-01-27T05:46:27.628Z,40.30
2023-01-27T05:48:56.070Z,39.03
2023-01-27T05:51:24.509Z,38.47
2023-01-27T05:53:51.989Z,38.27
2023-01-27T05:56:20.212Z,37.00
2023-01-27T05:58:49.543Z,38.97
2023-01-27T06:01:18.220Z,38.37
2023-01-27T06:03:46.096Z,37.47
2023-01-27T06:06:14.265Z,38.67
2023-01-27T06:08:41.825Z,38.93
2023-01-27T06:11:09.538Z,38.80
2023-01-27T06:13:38.863Z,40.77
2023-01-27T06:16:08.151Z,38.03
2023-01-27T06:18:35.950Z,38.10
2023-01-27T06:21:04.640Z,38.93
2023-01-27T06:23:32.395Z,40.03
2023-01-27T06:26:04.670Z,38.60
2023-01-27T06:28:33.609Z,37.57
2023-01-27T06:31:11.576Z,37.73
2023-01-27T06:33:38.981Z,37.57
2023-01-27T06:36:07.677Z,39.23
2023-01-27T06:38:35.114Z,38.70
2023-01-27T06:41:02.721Z,37.47
2023-01-27T06:43:30.034Z,37.43
2023-01-27T06:46:00.919Z,37.03
2023-01-27T06:48:29.313Z,36.87
2023-01-27T06:50:57.356Z,37.27
2023-01-27T06:53:25.320Z,37.27
2023-01-27T06:55:59.093Z,36.43
2023-01-27T06:58:26.727Z,37.10
2023-01-27T07:00:54.739Z,36.60
2023-01-27T07:03:22.163Z,36.13
2023-01-27T07:05:49.541Z,37.07
2023-01-27T07:08:16.860Z,36.90
2023-01-27T07:10:44.217Z,38.20
2023-01-27T07:13:12.807Z,38.37
2023-01-27T07:15:40.589Z,37.90
2023-01-27T07:18:07.968Z,38.10
2023-01-27T07:20:36.913Z,38.07
2023-01-27T07:23:05.728Z,37.20
2023-01-27T07:25:33.702Z,38.87
2023-01-27T07:28:02.370Z,37.40
2023-01-27T07:30:30.694Z,36.07
2023-01-27T07:33:03.976Z,34.70
2023-01-27T07:35:31.322Z,36.07
2023-01-27T07:37:58.988Z,35.73
2023-01-27T07:40:26.617Z,35.67
2023-01-27T07:42:53.896Z,33.97
2023-01-27T07:45:21.833Z,33.93
2023-01-27T07:47:49.572Z,33.37
2023-01-27T07:50:25.750Z,33.20
2023-01-27T07:52:56.538Z,30.43
2023-01-27T07:55:23.860Z,30.43
2023-01-27T07:57:53.922Z,30.90
2023-01-27T08:00:21.948Z,29.03
2023-01-27T08:02:52.582Z,28.73
2023-01-27T08:05:25.561Z,28.77
2023-01-27T08:07:54.344Z,27.80
2023-01-27T08:10:21.950Z,28.23
2023-01-27T08:12:50.567Z,29.90
2023-01-27T08:15:19.123Z,29.37
2023-01-27T08:17:55.069Z,31.73
2023-01-27T08:20:23.501Z,27.63
2023-01-27T08:22:53.162Z,24.87
2023-01-27T08:25:20.612Z,24.33
2023-01-27T08:27:50.635Z,25.30
2023-01-27T08:30:18.326Z,25.20
2023-01-27T08:32:45.702Z,26.20
2023-01-27T08:35:12.995Z,26.37
2023-01-27T08:37:40.334Z,26.17
2023-01-27T08:40:07.968Z,26.27
2023-01-27T08:42:35.284Z,24.90
2023-01-27T08:45:02.652Z,26.03
2023-01-27T08:47:30.020Z,28.53
2023-01-27T08:49:57.335Z,25.90
2023-01-27T08:52:24.846Z,25.27
2023-01-27T08:54:52.176Z,25.50
2023-01-27T08:57:19.584Z,25.60
2023-01-27T08:59:49.031Z,24.87
2023-01-27T09:02:16.605Z,25.10
2023-01-27T09:04:46.216Z,23.97
2023-01-27T09:07:13.575Z,25.80
2023-01-27T09:09:40.915Z,27.83
2023-01-27T09:12:08.410Z,26.80
2023-01-27T09:14:36.478Z,25.87
2023-01-27T09:17:03.785Z,25.00
2023-01-27T09:19:31.312Z,25.43
2023-01-27T09:21:58.904Z,25.37
2023-01-27T09:24:26.316Z,24.57
2023-01-27T09:26:54.470Z,24.30
2023-01-27T09:29:21.957Z,24.97
2023-01-27T09:31:49.320Z,24.20
2023-01-27T09:34:17.853Z,24.17
2023-01-27T09:36:46.858Z,23.13
2023-01-27T09:39:16.900Z,24.13
2023-01-27T09:41:55.654Z,23.17
2023-01-27T09:44:26.113Z,23.03
2023-01-27T09:46:53.490Z,22.60
2023-01-27T09:49:32.751Z,22.27
2023-01-27T09:52:15.147Z,25.40
2023-01-27T09:54:49.012Z,22.63
2023-01-27T09:57:39.613Z,25.20
2023-01-27T10:00:22.613Z,22.40
2023-01-27T10:02:59.945Z,19.27
2023-01-27T10:05:45.800Z,20.40
2023-01-27T10:08:32.050Z,21.67
2023-01-27T10:11:05.696Z,20.53
2023-01-27T10:13:33.325Z,21.17
2023-01-27T10:16:00.906Z,21.73
2023-01-27T10:18:50.931Z,20.93
2023-01-27T10:21:36.583Z,18.37
2023-01-27T10:24:20.556Z,16.73
2023-01-27T10:27:11.222Z,18.43
2023-01-27T10:29:42.739Z,20.57
2023-01-27T10:32:16.163Z,21.03
2023-01-27T10:34:49.552Z,19.53
2023-01-27T10:37:25.646Z,20.23
2023-01-27T10:40:16.182Z,20.83
2023-01-27T10:42:43.652Z,20.57
2023-01-27T10:45:11.008Z,19.70
2023-01-27T10:47:56.756Z,21.80
2023-01-27T10:50:27.794Z,21.63
2023-01-27T10:53:10.870Z,22.03
2023-01-27T10:55:42.254Z,21.80
2023-01-27T10:58:24.042Z,21.73
2023-01-27T11:03:45.900Z,22.27
2023-01-27T11:06:16.323Z,24.97
2023-01-27T11:08:46.592Z,23.43
2023-01-27T11:11:33.784Z,26.37
2023-01-27T11:14:04.733Z,26.80
2023-01-27T11:16:37.960Z,28.13
2023-01-27T11:19:32.054Z,27.93
2023-01-27T11:22:08.186Z,29.43
2023-01-27T11:24:44.985Z,27.17
2023-01-27T11:27:17.453Z,29.07
2023-01-27T11:30:12.366Z,28.83
2023-01-27T11:32:49.130Z,28.93
2023-01-27T11:35:17.097Z,28.67
2023-01-27T11:37:49.849Z,27.63
2023-01-27T11:40:23.829Z,27.93
2023-01-27T11:42:52.094Z,27.90
2023-01-27T11:45:20.856Z,26.60
2023-01-27T11:47:50.276Z,26.03
2023-01-27T11:50:18.859Z,25.17
2023-01-27T11:52:47.118Z,24.83
2023-01-27T11:55:14.428Z,23.70
2023-01-27T11:57:54.498Z,23.10
2023-01-27T12:00:27.327Z,22.57
2023-01-27T12:03:21.939Z,23.57
2023-01-27T12:06:02.043Z,25.47
2023-01-27T12:08:41.109Z,26.20
2023-01-27T12:11:31.821Z,28.23
2023-01-27T12:14:01.078Z,28.40
2023-01-27T12:16:36.029Z,29.67
2023-01-27T12:19:06.056Z,30.20
2023-01-27T12:21:44.015Z,30.13
2023-01-27T12:24:19.486Z,29.03
2023-01-27T12:26:46.943Z,30.00
2023-01-27T12:29:24.233Z,29.47
2023-01-27T12:31:53.823Z,31.93
2023-01-27T12:34:25.423Z,31.63
2023-01-27T12:36:53.099Z,31.87
2023-01-27T12:40:00.650Z,33.33
2023-01-27T12:42:39.896Z,32.30
2023-01-27T12:45:26.735Z,32.20
2023-01-27T12:48:00.513Z,31.10
2023-01-27T12:50:29.485Z,27.63
2023-01-27T12:53:02.441Z,28.33
2023-01-27T12:55:31.680Z,29.23
2023-01-27T12:57:59.031Z,29.10
2023-01-27T13:00:28.282Z,28.57
2023-01-27T13:03:01.118Z,30.23
2023-01-27T13:05:28.462Z,28.90
2023-01-27T13:07:55.995Z,29.63
2023-01-27T13:10:24.390Z,29.30
2023-01-27T13:12:53.220Z,29.90
2023-01-27T13:15:25.334Z,33.00
2023-01-27T13:17:53.482Z,35.07
2023-01-27T13:20:32.251Z,35.47
2023-01-27T13:23:22.891Z,35.00
2023-01-27T13:26:10.479Z,35.83
2023-01-27T13:28:51.573Z,34.97
2023-01-27T13:31:39.520Z,35.37
2023-01-27T13:34:25.532Z,35.03
2023-01-27T13:36:56.798Z,34.40
2023-01-27T13:39:48.753Z,33.57
2023-01-27T13:42:34.328Z,34.50
2023-01-27T13:45:13.144Z,33.57
2023-01-27T13:47:50.959Z,35.10
2023-01-27T13:50:33.488Z,35.13
2023-01-27T13:53:02.653Z,34.27
2023-01-27T13:55:41.416Z,34.13
2023-01-27T13:58:21.433Z,36.60
2023-01-27T14:00:59.065Z,37.07
2023-01-27T14:03:35.569Z,38.30
2023-01-27T14:06:21.725Z,37.53
2023-01-27T14:08:59.702Z,36.87
2023-01-27T14:11:27.018Z,39.57
2023-01-27T14:14:07.565Z,43.13
2023-01-27T14:16:53.623Z,39.50
2023-01-27T14:19:20.949Z,38.83
2023-01-27T14:21:53.879Z,38.27
2023-01-27T14:24:40.291Z,38.57
2023-01-27T14:27:10.449Z,39.07
2023-01-27T14:29:38.548Z,39.63
2023-01-27T14:32:26.548Z,39.83
2023-01-27T14:34:56.872Z,40.20
2023-01-27T14:37:42.313Z,37.93
2023-01-27T14:40:16.518Z,37.50
2023-01-27T14:42:56.052Z,39.13
2023-01-27T14:45:31.087Z,38.03
2023-01-27T14:48:10.795Z,40.00
2023-01-27T14:50:42.279Z,37.77
2023-01-27T14:53:22.041Z,36.83
2023-01-27T14:55:55.320Z,38.00
2023-01-27T14:58:41.610Z,38.73
2023-01-27T15:01:15.220Z,38.03
2023-01-27T15:04:05.402Z,37.57
2023-01-27T15:06:40.091Z,37.00
2023-01-27T15:09:13.694Z,38.03
2023-01-27T15:11:58.540Z,37.57
2023-01-27T15:14:44.734Z,37.90
2023-01-27T15:17:23.036Z,38.10
2023-01-27T15:20:07.529Z,37.00
2023-01-27T15:22:35.933Z,36.37
2023-01-27T15:25:22.941Z,37.73
2023-01-27T15:27:53.900Z,37.80
2023-01-27T15:30:26.627Z,39.37
2023-01-27T15:32:54.390Z,38.67
2023-01-27T15:35:38.313Z,40.00
2023-01-27T15:38:06.252Z,38.47
2023-01-27T15:41:15.573Z,40.07
2023-01-27T15:44:04.262Z,39.60
2023-01-27T15:46:35.618Z,41.80
2023-01-27T15:49:07.775Z,41.70
2023-01-27T15:51:37.018Z,41.43
2023-01-27T15:54:05.026Z,40.93
2023-01-27T15:56:46.699Z,41.30
2023-01-27T15:59:24.516Z,42.10
2023-01-27T16:02:01.301Z,42.73
2023-01-27T16:04:32.189Z,41.67
2023-01-27T16:07:02.393Z,43.23
2023-01-27T16:09:35.342Z,41.50
2023-01-27T16:12:08.260Z,41.63
2023-01-27T16:14:43.756Z,43.03
2023-01-27T16:17:17.739Z,41.73
2023-01-27T16:19:53.101Z,42.43
2023-01-27T16:22:24.885Z,41.33
2023-01-27T16:24:58.740Z,42.97
2023-01-27T16:27:45.221Z,44.67
2023-01-27T16:30:15.893Z,44.27
2023-01-27T16:32:48.317Z,43.50
2023-01-27T16:35:20.851Z,42.87
2023-01-27T16:38:11.595Z,44.40
2023-01-27T16:40:39.634Z,43.70
2023-01-27T16:43:18.218Z,44.17
2023-01-27T16:45:49.711Z,44.77
2023-01-27T16:48:20.156Z,43.27
2023-01-27T16:50:47.639Z,44.03
2023-01-27T16:53:14.904Z,43.50
2023-01-27T16:55:42.373Z,44.20
2023-01-27T16:58:18.662Z,44.90
2023-01-27T17:00:46.667Z,44.10
2023-01-27T17:03:18.773Z,44.70
2023-01-27T17:05:51.981Z,44.33
2023-01-27T17:08:19.370Z,45.80
2023-01-27T17:10:55.299Z,46.20
2023-01-27T17:13:31.561Z,45.70
2023-01-27T17:15:59.886Z,45.17
2023-01-27T17:18:28.096Z,46.73
2023-01-27T17:20:56.204Z,46.97
2023-01-27T17:23:33.615Z,46.90
2023-01-27T17:26:10.648Z,44.80
2023-01-27T17:28:38.233Z,46.00
2023-01-27T17:31:07.983Z,45.43
2023-01-27T17:33:36.571Z,47.10
2023-01-27T17:36:09.986Z,43.37
2023-01-27T17:38:43.204Z,45.73
2023-01-27T17:41:24.915Z,45.50
2023-01-27T17:43:53.149Z,45.73
2023-01-27T17:46:22.927Z,45.00
2023-01-27T17:49:13.099Z,47.10
2023-01-27T17:51:41.671Z,45.77
2023-01-27T17:54:27.689Z,45.67
2023-01-27T17:57:00.098Z,45.20
2023-01-27T17:59:27.470Z,44.77
2023-01-27T18:01:57.497Z,44.93
2023-01-27T18:04:26.482Z,44.10
2023-01-27T18:06:54.987Z,44.53
2023-01-27T18:09:27.856Z,43.60
2023-01-27T18:12:00.123Z,44.90
2023-01-27T18:14:29.925Z,44.30
2023-01-27T18:17:01.934Z,45.47
2023-01-27T18:19:30.030Z,45.07
2023-01-27T18:22:04.428Z,43.87
2023-01-27T18:24:33.530Z,43.20
2023-01-27T18:27:01.417Z,43.63
2023-01-27T18:29:28.716Z,42.70
2023-01-27T18:32:14.659Z,44.53
2023-01-27T18:34:52.594Z,44.43
2023-01-27T18:37:25.280Z,44.50
2023-01-27T18:39:53.044Z,44.50
2023-01-27T18:42:22.252Z,44.10
2023-01-27T18:44:51.681Z,43.10
2023-01-27T18:47:19.434Z,43.03
2023-01-27T18:50:07.648Z,42.20
2023-01-27T18:52:44.788Z,41.00
2023-01-27T18:55:18.460Z,40.07
2023-01-27T18:58:07.080Z,40.80
2023-01-27T19:00:43.085Z,40.00
2023-01-27T19:03:15.799Z,37.97
2023-01-27T19:05:43.367Z,39.20
2023-01-27T19:08:17.012Z,38.87
2023-01-27T19:11:00.967Z,40.83
2023-01-27T19:13:29.471Z,40.53
2023-01-27T19:15:57.475Z,44.47
2023-01-27T19:18:26.696Z,43.67
2023-01-27T19:20:56.861Z,42.03
2023-01-27T19:23:24.653Z,42.17
2023-01-27T19:25:56.558Z,41.63
2023-01-27T19:28:31.746Z,40.67
2023-01-27T19:31:02.663Z,39.63
2023-01-27T19:33:40.654Z,40.03
2023-01-27T19:36:21.126Z,40.33
2023-01-27T19:38:49.208Z,38.67
2023-01-27T19:41:17.589Z,37.40
2023-01-27T19:43:49.923Z,37.17
2023-01-27T19:46:20.784Z,37.53
2023-01-27T19:48:49.374Z,38.13
2023-01-27T19:51:18.957Z,38.97
2023-01-27T19:53:47.727Z,39.17
2023-01-27T19:56:17.565Z,37.90
2023-01-27T19:58:49.744Z,39.13
2023-01-27T20:01:18.091Z,39.43
2023-01-27T20:03:45.966Z,39.10
2023-01-27T20:06:17.576Z,38.90
2023-01-27T20:08:45.131Z,41.50
2023-01-27T20:11:24.374Z,39.70
2023-01-27T20:13:51.710Z,35.00
2023-01-27T20:16:20.383Z,36.43
2023-01-27T20:18:48.540Z,34.30
2023-01-27T20:21:15.886Z,34.30
2023-01-27T20:23:43.352Z,32.70
2023-01-27T20:26:15.491Z,31.37
2023-01-27T20:28:43.089Z,32.27
2023-01-27T20:31:18.100Z,30.60
2023-01-27T20:33:50.204Z,30.13
2023-01-27T20:36:19.363Z,29.87
2023-01-27T20:38:48.666Z,28.67
2023-01-27T20:41:20.613Z,29.23
2023-01-27T20:43:49.373Z,30.07
2023-01-27T20:46:19.090Z,28.97
2023-01-27T20:48:46.637Z,30.47
2023-01-27T20:51:15.522Z,29.53
2023-01-27T20:53:46.874Z,29.53
2023-01-27T20:56:17.420Z,29.70
2023-01-27T20:58:47.243Z,28.87
2023-01-27T21:01:24.071Z,29.93
2023-01-27T21:03:51.946Z,29.70
2023-01-27T21:06:20.905Z,29.53
2023-01-27T21:08:49.302Z,29.00
2023-01-27T21:11:18.638Z,29.60
2023-01-27T21:13:46.384Z,28.47
2023-01-27T21:16:14.100Z,30.67
2023-01-27T21:18:42.096Z,29.60
2023-01-27T21:21:18.699Z,29.20
2023-01-27T21:23:45.990Z,30.77
2023-01-27T21:26:14.360Z,29.03
2023-01-27T21:28:41.703Z,30.63
2023-01-27T21:31:09.932Z,30.47
2023-01-27T21:33:37.708Z,31.13
2023-01-27T21:36:05.804Z,30.93
2023-01-27T21:38:33.578Z,29.43
2023-01-27T21:41:08.221Z,29.70
2023-01-27T21:43:55.078Z,30.20
2023-01-27T21:46:22.895Z,30.67
2023-01-27T21:48:50.722Z,30.40
2023-01-27T21:51:38.984Z,31.00
2023-01-27T21:54:06.574Z,30.13
2023-01-27T21:56:33.999Z,31.20
2023-01-27T21:59:10.602Z,31.40
2023-01-27T22:01:38.111Z,31.73
2023-01-27T22:04:07.663Z,32.10
2023-01-27T22:06:34.977Z,31.93
2023-01-27T22:09:02.603Z,32.53
2023-01-27T22:11:29.912Z,31.93
2023-01-27T22:13:57.742Z,35.83
2023-01-27T22:16:26.029Z,33.17
2023-01-27T22:18:53.422Z,32.50
2023-01-27T22:21:20.806Z,32.80
2023-01-27T22:23:48.473Z,33.77
2023-01-27T22:26:15.863Z,33.50
2023-01-27T22:28:44.324Z,32.37
2023-01-27T22:31:11.625Z,32.43
2023-01-27T22:33:38.982Z,33.57
2023-01-27T22:36:07.273Z,31.60
2023-01-27T22:38:38.058Z,31.30
2023-01-27T22:41:05.636Z,32.50
2023-01-27T22:43:34.367Z,32.47
2023-01-27T22:46:03.038Z,31.90
2023-01-27T22:48:30.934Z,32.60
2023-01-27T22:51:03.597Z,33.63
2023-01-27T22:53:30.985Z,32.03
2023-01-27T22:56:30.610Z,30.83
2023-01-27T22:58:58.039Z,31.70
2023-01-27T23:01:25.497Z,29.23
2023-01-27T23:03:52.892Z,31.23
2023-01-27T23:06:20.231Z,31.47
2023-01-27T23:08:49.847Z,30.53
2023-01-27T23:11:17.180Z,29.40
2023-01-27T23:13:44.495Z,30.27
2023-01-27T23:16:11.839Z,29.87
2023-01-27T23:18:39.597Z,30.77
2023-01-27T23:21:09.753Z,29.73
2023-01-27T23:23:37.344Z,29.27
2023-01-27T23:26:08.812Z,30.43
2023-01-27T23:28:38.445Z,31.27
2023-01-27T23:31:10.360Z,29.63
2023-01-27T23:33:38.503Z,28.77
2023-01-27T23:36:07.574Z,28.50
2023-01-27T23:38:35.653Z,28.63
2023-01-27T23:41:03.717Z,28.93
2023-01-27T23:43:49.865Z,28.07
2023-01-27T23:46:17.210Z,26.50
2023-01-27T23:48:50.327Z,27.77
2023-01-27T23:51:17.845Z,27.70
2023-01-27T23:53:45.409Z,27.90
2023-01-27T23:56:13.335Z,28.43
2023-01-27T23:59:13.940Z,28.23
